﻿<?xml version="1.0" encoding="utf-8"?><gpx creator="Garmin Desktop App" version="1.1" xsi:schemaLocation="http://www.topografix.com/GPX/1/1 http://www.topografix.com/GPX/1/1/gpx.xsd http://www.garmin.com/xmlschemas/WaypointExtension/v1 http://www8.garmin.com/xmlschemas/WaypointExtensionv1.xsd http://www.garmin.com/xmlschemas/TrackPointExtension/v1 http://www.garmin.com/xmlschemas/TrackPointExtensionv1.xsd http://www.garmin.com/xmlschemas/GpxExtensions/v3 http://www8.garmin.com/xmlschemas/GpxExtensionsv3.xsd http://www.garmin.com/xmlschemas/ActivityExtension/v1 http://www8.garmin.com/xmlschemas/ActivityExtensionv1.xsd http://www.garmin.com/xmlschemas/AdventuresExtensions/v1 http://www8.garmin.com/xmlschemas/AdventuresExtensionv1.xsd http://www.garmin.com/xmlschemas/PressureExtension/v1 http://www.garmin.com/xmlschemas/PressureExtensionv1.xsd http://www.garmin.com/xmlschemas/TripExtensions/v1 http://www.garmin.com/xmlschemas/TripExtensionsv1.xsd http://www.garmin.com/xmlschemas/TripMetaDataExtensions/v1 http://www.garmin.com/xmlschemas/TripMetaDataExtensionsv1.xsd http://www.garmin.com/xmlschemas/ViaPointTransportationModeExtensions/v1 http://www.garmin.com/xmlschemas/ViaPointTransportationModeExtensionsv1.xsd http://www.garmin.com/xmlschemas/CreationTimeExtension/v1 http://www.garmin.com/xmlschemas/CreationTimeExtensionsv1.xsd http://www.garmin.com/xmlschemas/AccelerationExtension/v1 http://www.garmin.com/xmlschemas/AccelerationExtensionv1.xsd http://www.garmin.com/xmlschemas/PowerExtension/v1 http://www.garmin.com/xmlschemas/PowerExtensionv1.xsd http://www.garmin.com/xmlschemas/VideoExtension/v1 http://www.garmin.com/xmlschemas/VideoExtensionv1.xsd" xmlns="http://www.topografix.com/GPX/1/1" xmlns:xsi="http://www.w3.org/2001/XMLSchema-instance" xmlns:wptx1="http://www.garmin.com/xmlschemas/WaypointExtension/v1" xmlns:gpxtrx="http://www.garmin.com/xmlschemas/GpxExtensions/v3" xmlns:gpxtpx="http://www.garmin.com/xmlschemas/TrackPointExtension/v1" xmlns:gpxx="http://www.garmin.com/xmlschemas/GpxExtensions/v3" xmlns:trp="http://www.garmin.com/xmlschemas/TripExtensions/v1" xmlns:adv="http://www.garmin.com/xmlschemas/AdventuresExtensions/v1" xmlns:prs="http://www.garmin.com/xmlschemas/PressureExtension/v1" xmlns:tmd="http://www.garmin.com/xmlschemas/TripMetaDataExtensions/v1" xmlns:vptm="http://www.garmin.com/xmlschemas/ViaPointTransportationModeExtensions/v1" xmlns:ctx="http://www.garmin.com/xmlschemas/CreationTimeExtension/v1" xmlns:gpxacc="http://www.garmin.com/xmlschemas/AccelerationExtension/v1" xmlns:gpxpx="http://www.garmin.com/xmlschemas/PowerExtension/v1" xmlns:vidx1="http://www.garmin.com/xmlschemas/VideoExtension/v1">

  <metadata>
    <link href="http://www.garmin.com">
      <text>Garmin International</text>
    </link>
    <time>2022-07-26T07:46:56Z</time>
    <bounds maxlat="50.448712315410376" maxlon="6.421060021966696" minlat="50.356655633077025" minlon="6.316259996965528" />
  </metadata>

  <trk>
    <name>Lanzerath Ramscheid via weiben stein 23 km</name>
    <link href="https://www.gpsies.com/map.do?fileId=mvjukowpwnmiwwfi" />
    <link href="https://www.gpsies.com/charts/mv/map/mvjukowpwnmiwwfi_map.png" />
    <link href="https://www.gpsies.com/charts/mv/mapThumb/mvjukowpwnmiwwfi_mapThumb.png" />
    <link href="https://www.gpsies.com/charts/mv/tab/mvjukowpwnmiwwfi_tab.png" />
    <extensions>
      <gpxx:TrackExtension>
        <gpxx:DisplayColor>Red</gpxx:DisplayColor>
      </gpxx:TrackExtension>
    </extensions>
    <trkseg>
      <trkpt lat="50.356683041900396" lon="6.33387565612793">
        <ele>623</ele>
        <time>2010-01-01T00:00:00Z</time>
      </trkpt>
      <trkpt lat="50.356655633077025" lon="6.333146095275879">
        <ele>625</ele>
        <time>2010-01-01T00:00:18Z</time>
      </trkpt>
      <trkpt lat="50.35698420368135" lon="6.332974433898926">
        <ele>626</ele>
        <time>2010-01-01T00:00:32Z</time>
      </trkpt>
      <trkpt lat="50.357449734583497" lon="6.333060264587402">
        <ele>628</ele>
        <time>2010-01-01T00:00:51Z</time>
      </trkpt>
      <trkpt lat="50.357915097847581" lon="6.333103179931641">
        <ele>630</ele>
        <time>2010-01-01T00:01:09Z</time>
      </trkpt>
      <trkpt lat="50.357879977673292" lon="6.332990024238825">
        <ele>630</ele>
        <time>2010-01-01T00:01:13Z</time>
      </trkpt>
      <trkpt lat="50.358049962669611" lon="6.332890028133988">
        <ele>631</ele>
        <time>2010-01-01T00:01:20Z</time>
      </trkpt>
      <trkpt lat="50.358290020376444" lon="6.33270001038909">
        <ele>630</ele>
        <time>2010-01-01T00:01:31Z</time>
      </trkpt>
      <trkpt lat="50.35882000811398" lon="6.332310000434518">
        <ele>632</ele>
        <time>2010-01-01T00:01:54Z</time>
      </trkpt>
      <trkpt lat="50.359359970316291" lon="6.332010012120009">
        <ele>635</ele>
        <time>2010-01-01T00:02:17Z</time>
      </trkpt>
      <trkpt lat="50.359649984166026" lon="6.331829968839884">
        <ele>636</ele>
        <time>2010-01-01T00:02:30Z</time>
      </trkpt>
      <trkpt lat="50.360390022397041" lon="6.331129996106029">
        <ele>641</ele>
        <time>2010-01-01T00:03:04Z</time>
      </trkpt>
      <trkpt lat="50.360750025138259" lon="6.330809975042939">
        <ele>644</ele>
        <time>2010-01-01T00:03:21Z</time>
      </trkpt>
      <trkpt lat="50.361150009557605" lon="6.33063999004662">
        <ele>645</ele>
        <time>2010-01-01T00:03:37Z</time>
      </trkpt>
      <trkpt lat="50.362130021676421" lon="6.330969985574484">
        <ele>647</ele>
        <time>2010-01-01T00:04:17Z</time>
      </trkpt>
      <trkpt lat="50.362249966710806" lon="6.33096001110971">
        <ele>647</ele>
        <time>2010-01-01T00:04:22Z</time>
      </trkpt>
      <trkpt lat="50.362249966710806" lon="6.330179991200566">
        <ele>648</ele>
        <time>2010-01-01T00:04:42Z</time>
      </trkpt>
      <trkpt lat="50.362290032207966" lon="6.330040013417602">
        <ele>648</ele>
        <time>2010-01-01T00:04:46Z</time>
      </trkpt>
      <trkpt lat="50.363419996574521" lon="6.3302300311625">
        <ele>650</ele>
        <time>2010-01-01T00:05:32Z</time>
      </trkpt>
      <trkpt lat="50.363659970462322" lon="6.330170016735792">
        <ele>652</ele>
        <time>2010-01-01T00:05:41Z</time>
      </trkpt>
      <trkpt lat="50.363989965990186" lon="6.330449972301722">
        <ele>655</ele>
        <time>2010-01-01T00:05:56Z</time>
      </trkpt>
      <trkpt lat="50.364000024273992" lon="6.330409990623593">
        <ele>656</ele>
        <time>2010-01-01T00:05:57Z</time>
      </trkpt>
      <trkpt lat="50.364774512127042" lon="6.328905690461397">
        <ele>656</ele>
        <time>2010-01-01T00:06:50Z</time>
      </trkpt>
      <trkpt lat="50.365021526813507" lon="6.328193731606007">
        <ele>656</ele>
        <time>2010-01-01T00:07:05Z</time>
      </trkpt>
      <trkpt lat="50.365133844316006" lon="6.327949231490493">
        <ele>657</ele>
        <time>2010-01-01T00:07:14Z</time>
      </trkpt>
      <trkpt lat="50.365629969164729" lon="6.327399965375662">
        <ele>657</ele>
        <time>2010-01-01T00:07:40Z</time>
      </trkpt>
      <trkpt lat="50.366117460653186" lon="6.326992772519589">
        <ele>658</ele>
        <time>2010-01-01T00:08:03Z</time>
      </trkpt>
      <trkpt lat="50.366750797256827" lon="6.326086604967713">
        <ele>657</ele>
        <time>2010-01-01T00:08:26Z</time>
      </trkpt>
      <trkpt lat="50.367002170532942" lon="6.325683854520321">
        <ele>650</ele>
        <time>2010-01-01T00:08:47Z</time>
      </trkpt>
      <trkpt lat="50.367350438609719" lon="6.32520348764956">
        <ele>645</ele>
        <time>2010-01-01T00:09:06Z</time>
      </trkpt>
      <trkpt lat="50.368033144623041" lon="6.324347695335746">
        <ele>641</ele>
        <time>2010-01-01T00:09:45Z</time>
      </trkpt>
      <trkpt lat="50.368290888145566" lon="6.323987357318401">
        <ele>639</ele>
        <time>2010-01-01T00:09:54Z</time>
      </trkpt>
      <trkpt lat="50.369285903871059" lon="6.322782794013619">
        <ele>635</ele>
        <time>2010-01-01T00:10:45Z</time>
      </trkpt>
      <trkpt lat="50.369604835286736" lon="6.322538293898106">
        <ele>636</ele>
        <time>2010-01-01T00:11:02Z</time>
      </trkpt>
      <trkpt lat="50.370862456038594" lon="6.321891043335199">
        <ele>634</ele>
        <time>2010-01-01T00:11:57Z</time>
      </trkpt>
      <trkpt lat="50.371154397726059" lon="6.321725584566593">
        <ele>631</ele>
        <time>2010-01-01T00:12:10Z</time>
      </trkpt>
      <trkpt lat="50.372522324323654" lon="6.319778133183718">
        <ele>625</ele>
        <time>2010-01-01T00:13:20Z</time>
      </trkpt>
      <trkpt lat="50.373039990663528" lon="6.31849997676909">
        <ele>620</ele>
        <time>2010-01-01T00:14:00Z</time>
      </trkpt>
      <trkpt lat="50.373079301789403" lon="6.318577090278268">
        <ele>620</ele>
        <time>2010-01-01T00:14:02Z</time>
      </trkpt>
      <trkpt lat="50.373869966715574" lon="6.31950999610126">
        <ele>614</ele>
        <time>2010-01-01T00:14:44Z</time>
      </trkpt>
      <trkpt lat="50.373869966715574" lon="6.319500021636486">
        <ele>614</ele>
        <time>2010-01-01T00:14:44Z</time>
      </trkpt>
      <trkpt lat="50.374010028317571" lon="6.319690039381385">
        <ele>614</ele>
        <time>2010-01-01T00:14:51Z</time>
      </trkpt>
      <trkpt lat="50.374250002205372" lon="6.319730021059513">
        <ele>615</ele>
        <time>2010-01-01T00:15:01Z</time>
      </trkpt>
      <trkpt lat="50.374359972774982" lon="6.319600017741323">
        <ele>616</ele>
        <time>2010-01-01T00:15:06Z</time>
      </trkpt>
      <trkpt lat="50.374510008841753" lon="6.319249989464879">
        <ele>615</ele>
        <time>2010-01-01T00:15:17Z</time>
      </trkpt>
      <trkpt lat="50.375049971044064" lon="6.31809001788497">
        <ele>614</ele>
        <time>2010-01-01T00:15:54Z</time>
      </trkpt>
      <trkpt lat="50.375160025432706" lon="6.317690033465624">
        <ele>614</ele>
        <time>2010-01-01T00:16:05Z</time>
      </trkpt>
      <trkpt lat="50.37559999153018" lon="6.316529978066683">
        <ele>614</ele>
        <time>2010-01-01T00:16:39Z</time>
      </trkpt>
      <trkpt lat="50.375660005956888" lon="6.316399974748492">
        <ele>615</ele>
        <time>2010-01-01T00:16:44Z</time>
      </trkpt>
      <trkpt lat="50.375699987635016" lon="6.31632998585701">
        <ele>615</ele>
        <time>2010-01-01T00:16:46Z</time>
      </trkpt>
      <trkpt lat="50.375760002061725" lon="6.316280029714108">
        <ele>615</ele>
        <time>2010-01-01T00:16:49Z</time>
      </trkpt>
      <trkpt lat="50.375809958204627" lon="6.316259996965528">
        <ele>615</ele>
        <time>2010-01-01T00:16:51Z</time>
      </trkpt>
      <trkpt lat="50.375820016488433" lon="6.31632998585701">
        <ele>615</ele>
        <time>2010-01-01T00:16:53Z</time>
      </trkpt>
      <trkpt lat="50.375990001484752" lon="6.316510029137135">
        <ele>616</ele>
        <time>2010-01-01T00:17:01Z</time>
      </trkpt>
      <trkpt lat="50.37602998316288" lon="6.316629974171519">
        <ele>615</ele>
        <time>2010-01-01T00:17:04Z</time>
      </trkpt>
      <trkpt lat="50.37602998316288" lon="6.316619999706745">
        <ele>615</ele>
        <time>2010-01-01T00:17:05Z</time>
      </trkpt>
      <trkpt lat="50.376069964841008" lon="6.316870031878352">
        <ele>615</ele>
        <time>2010-01-01T00:17:11Z</time>
      </trkpt>
      <trkpt lat="50.376040041446686" lon="6.317240009084344">
        <ele>615</ele>
        <time>2010-01-01T00:17:21Z</time>
      </trkpt>
      <trkpt lat="50.37605001591146" lon="6.317549971863627">
        <ele>614</ele>
        <time>2010-01-01T00:17:29Z</time>
      </trkpt>
      <trkpt lat="50.376221677288413" lon="6.318147098645568">
        <ele>612</ele>
        <time>2010-01-01T00:17:45Z</time>
      </trkpt>
      <trkpt lat="50.376169960945845" lon="6.319049997255206">
        <ele>620</ele>
        <time>2010-01-01T00:18:08Z</time>
      </trkpt>
      <trkpt lat="50.376220000907779" lon="6.319349985569716">
        <ele>623</ele>
        <time>2010-01-01T00:18:16Z</time>
      </trkpt>
      <trkpt lat="50.376329971477389" lon="6.319579984992743">
        <ele>624</ele>
        <time>2010-01-01T00:18:23Z</time>
      </trkpt>
      <trkpt lat="50.37645997479558" lon="6.319679981097579">
        <ele>624</ele>
        <time>2010-01-01T00:18:29Z</time>
      </trkpt>
      <trkpt lat="50.376659967005253" lon="6.319589959457517">
        <ele>624</ele>
        <time>2010-01-01T00:18:37Z</time>
      </trkpt>
      <trkpt lat="50.376979988068342" lon="6.319210007786751">
        <ele>622</ele>
        <time>2010-01-01T00:18:53Z</time>
      </trkpt>
      <trkpt lat="50.377160031348467" lon="6.319110011681914">
        <ele>623</ele>
        <time>2010-01-01T00:19:01Z</time>
      </trkpt>
      <trkpt lat="50.37733999080956" lon="6.319219982251525">
        <ele>623</ele>
        <time>2010-01-01T00:19:09Z</time>
      </trkpt>
      <trkpt lat="50.377520034089684" lon="6.31953002884984">
        <ele>623</ele>
        <time>2010-01-01T00:19:19Z</time>
      </trkpt>
      <trkpt lat="50.377739975228906" lon="6.320810029283166">
        <ele>631</ele>
        <time>2010-01-01T00:19:53Z</time>
      </trkpt>
      <trkpt lat="50.377860004082322" lon="6.322039989754558">
        <ele>634</ele>
        <time>2010-01-01T00:20:25Z</time>
      </trkpt>
      <trkpt lat="50.377890011295676" lon="6.322450032457709">
        <ele>634</ele>
        <time>2010-01-01T00:20:35Z</time>
      </trkpt>
      <trkpt lat="50.377890011295676" lon="6.322439974173904">
        <ele>634</ele>
        <time>2010-01-01T00:20:36Z</time>
      </trkpt>
      <trkpt lat="50.37789998576045" lon="6.322599984705448">
        <ele>634</ele>
        <time>2010-01-01T00:20:40Z</time>
      </trkpt>
      <trkpt lat="50.378229981288314" lon="6.324820015579462">
        <ele>641</ele>
        <time>2010-01-01T00:21:38Z</time>
      </trkpt>
      <trkpt lat="50.378380017355084" lon="6.325280014425516">
        <ele>642</ele>
        <time>2010-01-01T00:21:51Z</time>
      </trkpt>
      <trkpt lat="50.378489987924695" lon="6.325519988313317">
        <ele>643</ele>
        <time>2010-01-01T00:21:59Z</time>
      </trkpt>
      <trkpt lat="50.37867003120482" lon="6.325819976627827">
        <ele>645</ele>
        <time>2010-01-01T00:22:09Z</time>
      </trkpt>
      <trkpt lat="50.379479974508286" lon="6.32702998816967">
        <ele>650</ele>
        <time>2010-01-01T00:22:54Z</time>
      </trkpt>
      <trkpt lat="50.380180031061172" lon="6.328469999134541">
        <ele>658</ele>
        <time>2010-01-01T00:23:40Z</time>
      </trkpt>
      <trkpt lat="50.381370009854436" lon="6.329859970137477">
        <ele>660</ele>
        <time>2010-01-01T00:24:40Z</time>
      </trkpt>
      <trkpt lat="50.382970031350851" lon="6.331650009378791">
        <ele>667</ele>
        <time>2010-01-01T00:25:58Z</time>
      </trkpt>
      <trkpt lat="50.383059969171882" lon="6.33184002712369">
        <ele>668</ele>
        <time>2010-01-01T00:26:04Z</time>
      </trkpt>
      <trkpt lat="50.383110009133816" lon="6.332059968262911">
        <ele>668</ele>
        <time>2010-01-01T00:26:10Z</time>
      </trkpt>
      <trkpt lat="50.383189972490072" lon="6.332609988749027">
        <ele>668</ele>
        <time>2010-01-01T00:26:25Z</time>
      </trkpt>
      <trkpt lat="50.383179998025298" lon="6.332609988749027">
        <ele>669</ele>
        <time>2010-01-01T00:26:25Z</time>
      </trkpt>
      <trkpt lat="50.383409997448325" lon="6.334300031885505">
        <ele>676</ele>
        <time>2010-01-01T00:27:09Z</time>
      </trkpt>
      <trkpt lat="50.383519968017936" lon="6.33454998023808">
        <ele>677</ele>
        <time>2010-01-01T00:27:17Z</time>
      </trkpt>
      <trkpt lat="50.38357000797987" lon="6.334719965234399">
        <ele>677</ele>
        <time>2010-01-01T00:27:22Z</time>
      </trkpt>
      <trkpt lat="50.383920036256313" lon="6.335360007360578">
        <ele>676</ele>
        <time>2010-01-01T00:27:43Z</time>
      </trkpt>
      <trkpt lat="50.384157076478004" lon="6.335802571848035">
        <ele>676</ele>
        <time>2010-01-01T00:28:05Z</time>
      </trkpt>
      <trkpt lat="50.384307950735092" lon="6.336475722491741">
        <ele>677</ele>
        <time>2010-01-01T00:28:15Z</time>
      </trkpt>
      <trkpt lat="50.384395960718393" lon="6.336694322526455">
        <ele>680</ele>
        <time>2010-01-01T00:28:23Z</time>
      </trkpt>
      <trkpt lat="50.384994931519032" lon="6.337642064318061">
        <ele>682</ele>
        <time>2010-01-01T00:28:58Z</time>
      </trkpt>
      <trkpt lat="50.385388378053904" lon="6.338274898007512">
        <ele>682</ele>
        <time>2010-01-01T00:28:58Z</time>
      </trkpt>
      <trkpt lat="50.389519985765219" lon="6.344770034775138">
        <ele>655</ele>
        <time>2010-01-01T00:33:15Z</time>
      </trkpt>
      <trkpt lat="50.393329979851842" lon="6.35092000477016">
        <ele>653</ele>
        <time>2010-01-01T00:36:53Z</time>
      </trkpt>
      <trkpt lat="50.393519997596741" lon="6.351489974185824">
        <ele>654</ele>
        <time>2010-01-01T00:37:10Z</time>
      </trkpt>
      <trkpt lat="50.393519997596741" lon="6.351589970290661">
        <ele>654</ele>
        <time>2010-01-01T00:37:12Z</time>
      </trkpt>
      <trkpt lat="50.393519997596741" lon="6.351579995825887">
        <ele>654</ele>
        <time>2010-01-01T00:37:13Z</time>
      </trkpt>
      <trkpt lat="50.393599960952997" lon="6.352450037375093">
        <ele>659</ele>
        <time>2010-01-01T00:37:35Z</time>
      </trkpt>
      <trkpt lat="50.393670033663511" lon="6.35281004011631">
        <ele>662</ele>
        <time>2010-01-01T00:37:45Z</time>
      </trkpt>
      <trkpt lat="50.394509984180331" lon="6.354780038818717">
        <ele>673</ele>
        <time>2010-01-01T00:38:45Z</time>
      </trkpt>
      <trkpt lat="50.395650006830692" lon="6.356650041416287">
        <ele>680</ele>
        <time>2010-01-01T00:39:51Z</time>
      </trkpt>
      <trkpt lat="50.395770035684109" lon="6.356790019199252">
        <ele>679</ele>
        <time>2010-01-01T00:39:57Z</time>
      </trkpt>
      <trkpt lat="50.396749963983893" lon="6.357459984719753">
        <ele>689</ele>
        <time>2010-01-01T00:40:40Z</time>
      </trkpt>
      <trkpt lat="50.3974299877882" lon="6.358100026845932">
        <ele>688</ele>
        <time>2010-01-01T00:41:12Z</time>
      </trkpt>
      <trkpt lat="50.397910019382834" lon="6.35859003290534">
        <ele>685</ele>
        <time>2010-01-01T00:41:35Z</time>
      </trkpt>
      <trkpt lat="50.399796534329653" lon="6.360807716846466">
        <ele>681</ele>
        <time>2010-01-01T00:43:07Z</time>
      </trkpt>
      <trkpt lat="50.401094555854797" lon="6.364187803119421">
        <ele>673</ele>
        <time>2010-01-01T00:45:26Z</time>
      </trkpt>
      <trkpt lat="50.40364433079958" lon="6.365933418273926">
        <ele>680</ele>
        <time>2010-01-01T00:46:36Z</time>
      </trkpt>
      <trkpt lat="50.403549028560519" lon="6.366747971624136">
        <ele>684</ele>
        <time>2010-01-01T00:46:57Z</time>
      </trkpt>
      <trkpt lat="50.404510265216231" lon="6.367474347352982">
        <ele>685</ele>
        <time>2010-01-01T00:47:40Z</time>
      </trkpt>
      <trkpt lat="50.403607450425625" lon="6.367035638540983">
        <ele>685</ele>
        <time>2010-01-01T00:47:42Z</time>
      </trkpt>
      <trkpt lat="50.402945028617978" lon="6.368453186005354">
        <ele>675</ele>
        <time>2010-01-01T00:48:30Z</time>
      </trkpt>
      <trkpt lat="50.399518003687263" lon="6.368261910974979">
        <ele>672</ele>
        <time>2010-01-01T00:48:34Z</time>
      </trkpt>
      <trkpt lat="50.398970916867256" lon="6.370386304333806">
        <ele>675</ele>
        <time>2010-01-01T00:49:05Z</time>
      </trkpt>
      <trkpt lat="50.398887852206826" lon="6.370806908234954">
        <ele>677</ele>
        <time>2010-01-01T00:51:33Z</time>
      </trkpt>
      <trkpt lat="50.398705545812845" lon="6.371320383623242">
        <ele>677</ele>
        <time>2010-01-01T00:51:34Z</time>
      </trkpt>
      <trkpt lat="50.398598592728376" lon="6.371712991967797">
        <ele>676</ele>
        <time>2010-01-01T00:51:39Z</time>
      </trkpt>
      <trkpt lat="50.398447718471289" lon="6.372246667742729">
        <ele>674</ele>
        <time>2010-01-01T00:51:56Z</time>
      </trkpt>
      <trkpt lat="50.397686809301376" lon="6.373736718669534">
        <ele>673</ele>
        <time>2010-01-01T00:52:12Z</time>
      </trkpt>
      <trkpt lat="50.398359708487988" lon="6.375176478177309">
        <ele>671</ele>
        <time>2010-01-01T00:52:24Z</time>
      </trkpt>
      <trkpt lat="50.399397220462561" lon="6.37542818672955">
        <ele>671</ele>
        <time>2010-01-01T00:52:32Z</time>
      </trkpt>
      <trkpt lat="50.40002603083849" lon="6.37489459477365">
        <ele>669</ele>
        <time>2010-01-01T00:52:43Z</time>
      </trkpt>
      <trkpt lat="50.400780653581023" lon="6.373183010146022">
        <ele>666</ele>
        <time>2010-01-01T00:53:10Z</time>
      </trkpt>
      <trkpt lat="50.401424802839756" lon="6.375050833448768">
        <ele>657</ele>
        <time>2010-01-01T00:54:22Z</time>
      </trkpt>
      <trkpt lat="50.402242289856076" lon="6.374029582366347">
        <ele>647</ele>
        <time>2010-01-01T00:54:58Z</time>
      </trkpt>
      <trkpt lat="50.402691476047039" lon="6.373468665406108">
        <ele>639</ele>
        <time>2010-01-01T00:55:36Z</time>
      </trkpt>
      <trkpt lat="50.402197362855077" lon="6.378143168985844">
        <ele>631</ele>
        <time>2010-01-01T00:55:57Z</time>
      </trkpt>
      <trkpt lat="50.401882957667112" lon="6.380444504320622">
        <ele>627</ele>
        <time>2010-01-01T00:56:19Z</time>
      </trkpt>
      <trkpt lat="50.402538757771254" lon="6.380070503801107">
        <ele>623</ele>
        <time>2010-01-01T00:56:30Z</time>
      </trkpt>
      <trkpt lat="50.402574716135859" lon="6.378416502848268">
        <ele>618</ele>
        <time>2010-01-01T00:56:40Z</time>
      </trkpt>
      <trkpt lat="50.403095735237002" lon="6.377035668119788">
        <ele>614</ele>
        <time>2010-01-01T00:56:47Z</time>
      </trkpt>
      <trkpt lat="50.403104703873396" lon="6.375899417325854">
        <ele>614</ele>
        <time>2010-01-01T00:56:47Z</time>
      </trkpt>
      <trkpt lat="50.404407251626253" lon="6.37476316653192">
        <ele>611</ele>
        <time>2010-01-01T00:57:07Z</time>
      </trkpt>
      <trkpt lat="50.405619945377111" lon="6.374863833189011">
        <ele>606</ele>
        <time>2010-01-01T00:57:38Z</time>
      </trkpt>
      <trkpt lat="50.40681067854166" lon="6.375870583578944">
        <ele>604</ele>
        <time>2010-01-01T00:57:56Z</time>
      </trkpt>
      <trkpt lat="50.407807789742947" lon="6.372871706262231">
        <ele>598</ele>
        <time>2010-01-01T00:58:16Z</time>
      </trkpt>
      <trkpt lat="50.408823760226369" lon="6.373518956825137">
        <ele>592</ele>
        <time>2010-01-01T00:58:33Z</time>
      </trkpt>
      <trkpt lat="50.409632194787264" lon="6.372677581384778">
        <ele>590</ele>
        <time>2010-01-01T00:58:42Z</time>
      </trkpt>
      <trkpt lat="50.408933144062757" lon="6.373875690624118">
        <ele>590</ele>
        <time>2010-01-01T00:58:46Z</time>
      </trkpt>
      <trkpt lat="50.407998897135258" lon="6.37338669039309">
        <ele>590</ele>
        <time>2010-01-01T00:58:49Z</time>
      </trkpt>
      <trkpt lat="50.406651422381401" lon="6.376349609345198">
        <ele>589</ele>
        <time>2010-01-01T00:58:55Z</time>
      </trkpt>
      <trkpt lat="50.407352149486542" lon="6.379830362275243">
        <ele>589</ele>
        <time>2010-01-01T00:59:05Z</time>
      </trkpt>
      <trkpt lat="50.405968716368079" lon="6.382160447537899">
        <ele>590</ele>
        <time>2010-01-01T00:59:10Z</time>
      </trkpt>
      <trkpt lat="50.401746667921543" lon="6.385669950395823">
        <ele>591</ele>
        <time>2010-01-01T00:59:34Z</time>
      </trkpt>
      <trkpt lat="50.401513064280152" lon="6.386964451521635">
        <ele>592</ele>
        <time>2010-01-01T00:59:43Z</time>
      </trkpt>
      <trkpt lat="50.401090029627085" lon="6.387299979105592">
        <ele>594</ele>
        <time>2010-01-01T01:00:12Z</time>
      </trkpt>
      <trkpt lat="50.401379959657788" lon="6.387369967997074">
        <ele>595</ele>
        <time>2010-01-01T01:00:24Z</time>
      </trkpt>
      <trkpt lat="50.401739962399006" lon="6.387510029599071">
        <ele>594</ele>
        <time>2010-01-01T01:00:38Z</time>
      </trkpt>
      <trkpt lat="50.402020001783967" lon="6.387729970738292">
        <ele>592</ele>
        <time>2010-01-01T01:00:51Z</time>
      </trkpt>
      <trkpt lat="50.402310015633702" lon="6.387900039553642">
        <ele>591</ele>
        <time>2010-01-01T01:01:03Z</time>
      </trkpt>
      <trkpt lat="50.402640011161566" lon="6.388490041717887">
        <ele>596</ele>
        <time>2010-01-01T01:01:23Z</time>
      </trkpt>
      <trkpt lat="50.402879985049367" lon="6.388490041717887">
        <ele>598</ele>
        <time>2010-01-01T01:01:33Z</time>
      </trkpt>
      <trkpt lat="50.403109984472394" lon="6.388539997860789">
        <ele>597</ele>
        <time>2010-01-01T01:01:42Z</time>
      </trkpt>
      <trkpt lat="50.403330009430647" lon="6.38880000449717">
        <ele>599</ele>
        <time>2010-01-01T01:01:53Z</time>
      </trkpt>
      <trkpt lat="50.403580041602254" lon="6.389220021665096">
        <ele>604</ele>
        <time>2010-01-01T01:02:08Z</time>
      </trkpt>
      <trkpt lat="50.403890004381537" lon="6.390140019357204">
        <ele>613</ele>
        <time>2010-01-01T01:02:35Z</time>
      </trkpt>
      <trkpt lat="50.40406996384263" lon="6.390400025993586">
        <ele>615</ele>
        <time>2010-01-01T01:02:44Z</time>
      </trkpt>
      <trkpt lat="50.404610009863973" lon="6.390730021521449">
        <ele>617</ele>
        <time>2010-01-01T01:03:08Z</time>
      </trkpt>
      <trkpt lat="50.404909998178482" lon="6.391079965978861">
        <ele>619</ele>
        <time>2010-01-01T01:03:22Z</time>
      </trkpt>
      <trkpt lat="50.405460018664598" lon="6.392070036381483">
        <ele>628</ele>
        <time>2010-01-01T01:03:56Z</time>
      </trkpt>
      <trkpt lat="50.406020013615489" lon="6.393469981849194">
        <ele>637</ele>
        <time>2010-01-01T01:04:38Z</time>
      </trkpt>
      <trkpt lat="50.40615001693368" lon="6.393929980695248">
        <ele>641</ele>
        <time>2010-01-01T01:04:51Z</time>
      </trkpt>
      <trkpt lat="50.406310027465224" lon="6.394380005076528">
        <ele>641</ele>
        <time>2010-01-01T01:05:04Z</time>
      </trkpt>
      <trkpt lat="50.406380016356707" lon="6.394459968432784">
        <ele>642</ele>
        <time>2010-01-01T01:05:08Z</time>
      </trkpt>
      <trkpt lat="50.406269961968064" lon="6.394610004499555">
        <ele>642</ele>
        <time>2010-01-01T01:05:13Z</time>
      </trkpt>
      <trkpt lat="50.40580996312201" lon="6.395249962806702">
        <ele>642</ele>
        <time>2010-01-01T01:05:38Z</time>
      </trkpt>
      <trkpt lat="50.40567995980382" lon="6.400499967858195">
        <ele>644</ele>
        <time>2010-01-01T01:07:52Z</time>
      </trkpt>
      <trkpt lat="50.404960038140416" lon="6.401760019361973">
        <ele>645</ele>
        <time>2010-01-01T01:08:35Z</time>
      </trkpt>
      <trkpt lat="50.40494997985661" lon="6.401809975504875">
        <ele>645</ele>
        <time>2010-01-01T01:08:37Z</time>
      </trkpt>
      <trkpt lat="50.404960038140416" lon="6.401760019361973">
        <ele>645</ele>
        <time>2010-01-01T01:08:38Z</time>
      </trkpt>
      <trkpt lat="50.408440036699176" lon="6.403949959203601">
        <ele>617</ele>
        <time>2010-01-01T01:11:08Z</time>
      </trkpt>
      <trkpt lat="50.40842997841537" lon="6.403949959203601">
        <ele>617</ele>
        <time>2010-01-01T01:11:08Z</time>
      </trkpt>
      <trkpt lat="50.408510025590658" lon="6.403990024700761">
        <ele>617</ele>
        <time>2010-01-01T01:11:12Z</time>
      </trkpt>
      <trkpt lat="50.408889977261424" lon="6.402919990941882">
        <ele>618</ele>
        <time>2010-01-01T01:11:43Z</time>
      </trkpt>
      <trkpt lat="50.408889977261424" lon="6.40295997262001">
        <ele>618</ele>
        <time>2010-01-01T01:11:44Z</time>
      </trkpt>
      <trkpt lat="50.40888000279665" lon="6.402949998155236">
        <ele>617</ele>
        <time>2010-01-01T01:11:45Z</time>
      </trkpt>
      <trkpt lat="50.408889977261424" lon="6.402919990941882">
        <ele>618</ele>
        <time>2010-01-01T01:11:45Z</time>
      </trkpt>
      <trkpt lat="50.409070020541549" lon="6.407150002196431">
        <ele>621</ele>
        <time>2010-01-01T01:13:34Z</time>
      </trkpt>
      <trkpt lat="50.412467876449227" lon="6.405405644327402">
        <ele>617</ele>
        <time>2010-01-01T01:14:06Z</time>
      </trkpt>
      <trkpt lat="50.413482924923301" lon="6.408037729561329">
        <ele>615</ele>
        <time>2010-01-01T01:14:49Z</time>
      </trkpt>
      <trkpt lat="50.415006000548601" lon="6.41025273129344">
        <ele>622</ele>
        <time>2010-01-01T01:15:33Z</time>
      </trkpt>
      <trkpt lat="50.416236631572247" lon="6.410928731784225">
        <ele>627</ele>
        <time>2010-01-01T01:15:51Z</time>
      </trkpt>
      <trkpt lat="50.416330005973577" lon="6.411069966852665">
        <ele>636</ele>
        <time>2010-01-01T01:28:03Z</time>
      </trkpt>
      <trkpt lat="50.416330005973577" lon="6.4109299890697">
        <ele>636</ele>
        <time>2010-01-01T01:28:07Z</time>
      </trkpt>
      <trkpt lat="50.417150007560849" lon="6.411389987915754">
        <ele>633</ele>
        <time>2010-01-01T01:28:42Z</time>
      </trkpt>
      <trkpt lat="50.418729996308684" lon="6.414309991523624">
        <ele>623</ele>
        <time>2010-01-01T01:30:19Z</time>
      </trkpt>
      <trkpt lat="50.41902001015842" lon="6.415250021964312">
        <ele>619</ele>
        <time>2010-01-01T01:30:46Z</time>
      </trkpt>
      <trkpt lat="50.419250009581447" lon="6.416200026869774">
        <ele>615</ele>
        <time>2010-01-01T01:31:12Z</time>
      </trkpt>
      <trkpt lat="50.419489983469248" lon="6.417740033939481">
        <ele>608</ele>
        <time>2010-01-01T01:31:52Z</time>
      </trkpt>
      <trkpt lat="50.419770022854209" lon="6.419009976089001">
        <ele>603</ele>
        <time>2010-01-01T01:32:27Z</time>
      </trkpt>
      <trkpt lat="50.420279977843165" lon="6.419999962672591">
        <ele>597</ele>
        <time>2010-01-01T01:32:59Z</time>
      </trkpt>
      <trkpt lat="50.420829998329282" lon="6.420649979263544">
        <ele>590</ele>
        <time>2010-01-01T01:33:27Z</time>
      </trkpt>
      <trkpt lat="50.42129997164011" lon="6.421030014753342">
        <ele>590</ele>
        <time>2010-01-01T01:33:48Z</time>
      </trkpt>
      <trkpt lat="50.421529971063137" lon="6.421060021966696">
        <ele>591</ele>
        <time>2010-01-01T01:33:57Z</time>
      </trkpt>
      <trkpt lat="50.421780003234744" lon="6.420949967578054">
        <ele>590</ele>
        <time>2010-01-01T01:34:07Z</time>
      </trkpt>
      <trkpt lat="50.422980040311813" lon="6.419680025428534">
        <ele>583</ele>
        <time>2010-01-01T01:35:05Z</time>
      </trkpt>
      <trkpt lat="50.423380024731159" lon="6.419550022110343">
        <ele>578</ele>
        <time>2010-01-01T01:35:22Z</time>
      </trkpt>
      <trkpt lat="50.423770034685731" lon="6.419539963826537">
        <ele>580</ele>
        <time>2010-01-01T01:35:37Z</time>
      </trkpt>
      <trkpt lat="50.423859972506762" lon="6.419510040432215">
        <ele>580</ele>
        <time>2010-01-01T01:35:41Z</time>
      </trkpt>
      <trkpt lat="50.423949994146824" lon="6.419550022110343">
        <ele>582</ele>
        <time>2010-01-01T01:35:45Z</time>
      </trkpt>
      <trkpt lat="50.424309996888041" lon="6.419599978253245">
        <ele>588</ele>
        <time>2010-01-01T01:35:59Z</time>
      </trkpt>
      <trkpt lat="50.424300022423267" lon="6.419599978253245">
        <ele>587</ele>
        <time>2010-01-01T01:36:00Z</time>
      </trkpt>
      <trkpt lat="50.42437001131475" lon="6.419610036537051">
        <ele>588</ele>
        <time>2010-01-01T01:36:02Z</time>
      </trkpt>
      <trkpt lat="50.424389960244298" lon="6.419439967721701">
        <ele>588</ele>
        <time>2010-01-01T01:36:07Z</time>
      </trkpt>
      <trkpt lat="50.424470845609903" lon="6.418790454044938">
        <ele>584</ele>
        <time>2010-01-01T01:36:25Z</time>
      </trkpt>
      <trkpt lat="50.424521137028933" lon="6.418458195403218">
        <ele>583</ele>
        <time>2010-01-01T01:36:33Z</time>
      </trkpt>
      <trkpt lat="50.424552569165826" lon="6.417964920401573">
        <ele>583</ele>
        <time>2010-01-01T01:36:42Z</time>
      </trkpt>
      <trkpt lat="50.424449974671006" lon="6.417469969019294">
        <ele>585</ele>
        <time>2010-01-01T01:36:58Z</time>
      </trkpt>
      <trkpt lat="50.42437001131475" lon="6.416869992390275">
        <ele>583</ele>
        <time>2010-01-01T01:37:13Z</time>
      </trkpt>
      <trkpt lat="50.424189968034625" lon="6.415770035237074">
        <ele>579</ele>
        <time>2010-01-01T01:37:42Z</time>
      </trkpt>
      <trkpt lat="50.424170019105077" lon="6.415069978684187">
        <ele>581</ele>
        <time>2010-01-01T01:38:00Z</time>
      </trkpt>
      <trkpt lat="50.424270015209913" lon="6.414149980992079">
        <ele>577</ele>
        <time>2010-01-01T01:38:24Z</time>
      </trkpt>
      <trkpt lat="50.424389960244298" lon="6.413589986041188">
        <ele>575</ele>
        <time>2010-01-01T01:38:39Z</time>
      </trkpt>
      <trkpt lat="50.424630017951131" lon="6.412950027734041">
        <ele>575</ele>
        <time>2010-01-01T01:38:58Z</time>
      </trkpt>
      <trkpt lat="50.42480000294745" lon="6.412699995562434">
        <ele>572</ele>
        <time>2010-01-01T01:39:07Z</time>
      </trkpt>
      <trkpt lat="50.425329990684986" lon="6.412209989503026">
        <ele>569</ele>
        <time>2010-01-01T01:39:32Z</time>
      </trkpt>
      <trkpt lat="50.425432920455933" lon="6.41218576580286">
        <ele>569</ele>
        <time>2010-01-01T01:39:37Z</time>
      </trkpt>
      <trkpt lat="50.425699967890978" lon="6.411989964544773">
        <ele>573</ele>
        <time>2010-01-01T01:39:48Z</time>
      </trkpt>
      <trkpt lat="50.425919992849231" lon="6.411519991233945">
        <ele>573</ele>
        <time>2010-01-01T01:40:03Z</time>
      </trkpt>
      <trkpt lat="50.426159966737032" lon="6.410899981856346">
        <ele>572</ele>
        <time>2010-01-01T01:40:21Z</time>
      </trkpt>
      <trkpt lat="50.426189973950386" lon="6.410769978538156">
        <ele>572</ele>
        <time>2010-01-01T01:40:25Z</time>
      </trkpt>
      <trkpt lat="50.426200032234192" lon="6.409800024703145">
        <ele>566</ele>
        <time>2010-01-01T01:40:49Z</time>
      </trkpt>
      <trkpt lat="50.426249988377094" lon="6.409549992531538">
        <ele>564</ele>
        <time>2010-01-01T01:40:56Z</time>
      </trkpt>
      <trkpt lat="50.426310002803802" lon="6.409419989213347">
        <ele>563</ele>
        <time>2010-01-01T01:41:00Z</time>
      </trkpt>
      <trkpt lat="50.426400024443865" lon="6.409289985895157">
        <ele>563</ele>
        <time>2010-01-01T01:41:05Z</time>
      </trkpt>
      <trkpt lat="50.42664997279644" lon="6.409040037542582">
        <ele>560</ele>
        <time>2010-01-01T01:41:17Z</time>
      </trkpt>
      <trkpt lat="50.427039982751012" lon="6.408980023115873">
        <ele>561</ele>
        <time>2010-01-01T01:41:33Z</time>
      </trkpt>
      <trkpt lat="50.427550021559" lon="6.408940041437745">
        <ele>562</ele>
        <time>2010-01-01T01:41:53Z</time>
      </trkpt>
      <trkpt lat="50.427910024300218" lon="6.408950015902519">
        <ele>562</ele>
        <time>2010-01-01T01:42:07Z</time>
      </trkpt>
      <trkpt lat="50.428219987079501" lon="6.408820012584329">
        <ele>558</ele>
        <time>2010-01-01T01:42:20Z</time>
      </trkpt>
      <trkpt lat="50.428770007565618" lon="6.408499991521239">
        <ele>559</ele>
        <time>2010-01-01T01:42:44Z</time>
      </trkpt>
      <trkpt lat="50.428770007565618" lon="6.408509965986013">
        <ele>559</ele>
        <time>2010-01-01T01:42:44Z</time>
      </trkpt>
      <trkpt lat="50.428830021992326" lon="6.408469984307885">
        <ele>559</ele>
        <time>2010-01-01T01:42:47Z</time>
      </trkpt>
      <trkpt lat="50.429230006411672" lon="6.408060025423765">
        <ele>557</ele>
        <time>2010-01-01T01:43:09Z</time>
      </trkpt>
      <trkpt lat="50.429539969190955" lon="6.407840000465512">
        <ele>555</ele>
        <time>2010-01-01T01:43:23Z</time>
      </trkpt>
      <trkpt lat="50.42972001247108" lon="6.407640008255839">
        <ele>555</ele>
        <time>2010-01-01T01:43:32Z</time>
      </trkpt>
      <trkpt lat="50.429880023002625" lon="6.407359968870878">
        <ele>555</ele>
        <time>2010-01-01T01:43:41Z</time>
      </trkpt>
      <trkpt lat="50.429980019107461" lon="6.407029973343015">
        <ele>554</ele>
        <time>2010-01-01T01:43:50Z</time>
      </trkpt>
      <trkpt lat="50.430040033534169" lon="6.406710036098957">
        <ele>553</ele>
        <time>2010-01-01T01:43:59Z</time>
      </trkpt>
      <trkpt lat="50.430329963564873" lon="6.406120033934712">
        <ele>550</ele>
        <time>2010-01-01T01:44:18Z</time>
      </trkpt>
      <trkpt lat="50.430429959669709" lon="6.405679984018207">
        <ele>548</ele>
        <time>2010-01-01T01:44:30Z</time>
      </trkpt>
      <trkpt lat="50.430440017953515" lon="6.405340014025569">
        <ele>547</ele>
        <time>2010-01-01T01:44:39Z</time>
      </trkpt>
      <trkpt lat="50.430429959669709" lon="6.405029967427254">
        <ele>548</ele>
        <time>2010-01-01T01:44:46Z</time>
      </trkpt>
      <trkpt lat="50.430500032380223" lon="6.403990024700761">
        <ele>550</ele>
        <time>2010-01-01T01:45:13Z</time>
      </trkpt>
      <trkpt lat="50.430630035698414" lon="6.403379989787936">
        <ele>553</ele>
        <time>2010-01-01T01:45:30Z</time>
      </trkpt>
      <trkpt lat="50.43073003180325" lon="6.403149990364909">
        <ele>553</ele>
        <time>2010-01-01T01:45:37Z</time>
      </trkpt>
      <trkpt lat="50.431509967893362" lon="6.402190010994673">
        <ele>543</ele>
        <time>2010-01-01T01:46:16Z</time>
      </trkpt>
      <trkpt lat="50.431629996746778" lon="6.40209998935461">
        <ele>540</ele>
        <time>2010-01-01T01:46:22Z</time>
      </trkpt>
      <trkpt lat="50.431839963421226" lon="6.401990018785">
        <ele>542</ele>
        <time>2010-01-01T01:46:30Z</time>
      </trkpt>
      <trkpt lat="50.431950017809868" lon="6.401960011571646">
        <ele>542</ele>
        <time>2010-01-01T01:46:35Z</time>
      </trkpt>
      <trkpt lat="50.432480005547404" lon="6.401739986613393">
        <ele>542</ele>
        <time>2010-01-01T01:46:58Z</time>
      </trkpt>
      <trkpt lat="50.433170003816485" lon="6.401739986613393">
        <ele>536</ele>
        <time>2010-01-01T01:47:25Z</time>
      </trkpt>
      <trkpt lat="50.433690017089248" lon="6.401869989931583">
        <ele>538</ele>
        <time>2010-01-01T01:47:46Z</time>
      </trkpt>
      <trkpt lat="50.434329975396395" lon="6.402450017631054">
        <ele>540</ele>
        <time>2010-01-01T01:48:16Z</time>
      </trkpt>
      <trkpt lat="50.434440029785037" lon="6.402650009840727">
        <ele>534</ele>
        <time>2010-01-01T01:48:23Z</time>
      </trkpt>
      <trkpt lat="50.434629963710904" lon="6.402840027585626">
        <ele>533</ele>
        <time>2010-01-01T01:48:32Z</time>
      </trkpt>
      <trkpt lat="50.43461998924613" lon="6.402840027585626">
        <ele>533</ele>
        <time>2010-01-01T01:48:32Z</time>
      </trkpt>
      <trkpt lat="50.43504998087883" lon="6.403249986469746">
        <ele>539</ele>
        <time>2010-01-01T01:48:52Z</time>
      </trkpt>
      <trkpt lat="50.435390034690499" lon="6.403679978102446">
        <ele>542</ele>
        <time>2010-01-01T01:49:10Z</time>
      </trkpt>
      <trkpt lat="50.43547997251153" lon="6.403900003060699">
        <ele>541</ele>
        <time>2010-01-01T01:49:16Z</time>
      </trkpt>
      <trkpt lat="50.435690023005009" lon="6.404529986903071">
        <ele>538</ele>
        <time>2010-01-01T01:49:34Z</time>
      </trkpt>
      <trkpt lat="50.435830000787973" lon="6.404829975217581">
        <ele>536</ele>
        <time>2010-01-01T01:49:44Z</time>
      </trkpt>
      <trkpt lat="50.436099981889129" lon="6.405249992385507">
        <ele>536</ele>
        <time>2010-01-01T01:49:59Z</time>
      </trkpt>
      <trkpt lat="50.43681001290679" lon="6.406049961224198">
        <ele>524</ele>
        <time>2010-01-01T01:50:34Z</time>
      </trkpt>
      <trkpt lat="50.438039973378181" lon="6.40691002830863">
        <ele>523</ele>
        <time>2010-01-01T01:51:28Z</time>
      </trkpt>
      <trkpt lat="50.438489997759461" lon="6.407389976084232">
        <ele>520</ele>
        <time>2010-01-01T01:51:50Z</time>
      </trkpt>
      <trkpt lat="50.438489997759461" lon="6.407380001619458">
        <ele>520</ele>
        <time>2010-01-01T01:51:50Z</time>
      </trkpt>
      <trkpt lat="50.438580019399524" lon="6.407470023259521">
        <ele>520</ele>
        <time>2010-01-01T01:51:54Z</time>
      </trkpt>
      <trkpt lat="50.43869711458683" lon="6.407653754577041">
        <ele>522</ele>
        <time>2010-01-01T01:52:00Z</time>
      </trkpt>
      <trkpt lat="50.438992660492659" lon="6.407965896651149">
        <ele>525</ele>
        <time>2010-01-01T01:52:16Z</time>
      </trkpt>
      <trkpt lat="50.439539747312665" lon="6.408509546890855">
        <ele>528</ele>
        <time>2010-01-01T01:52:37Z</time>
      </trkpt>
      <trkpt lat="50.441030049696565" lon="6.409677481278777">
        <ele>529</ele>
        <time>2010-01-01T01:52:41Z</time>
      </trkpt>
      <trkpt lat="50.442681284621358" lon="6.411197790876031">
        <ele>527</ele>
        <time>2010-01-01T01:52:46Z</time>
      </trkpt>
      <trkpt lat="50.444156499579549" lon="6.412708042189479">
        <ele>527</ele>
        <time>2010-01-01T01:52:54Z</time>
      </trkpt>
      <trkpt lat="50.445792898535728" lon="6.41308874823153">
        <ele>529</ele>
        <time>2010-01-01T01:52:58Z</time>
      </trkpt>
      <trkpt lat="50.445927595719695" lon="6.412628497928381">
        <ele>530</ele>
        <time>2010-01-01T01:52:58Z</time>
      </trkpt>
      <trkpt lat="50.446035386994481" lon="6.412125080823898">
        <ele>533</ele>
        <time>2010-01-01T01:53:02Z</time>
      </trkpt>
      <trkpt lat="50.445334743708372" lon="6.411290830001235">
        <ele>539</ele>
        <time>2010-01-01T01:53:10Z</time>
      </trkpt>
      <trkpt lat="50.444607110694051" lon="6.409277245402336">
        <ele>552</ele>
        <time>2010-01-01T01:53:28Z</time>
      </trkpt>
      <trkpt lat="50.444290023297071" lon="6.407879982143641">
        <ele>570</ele>
        <time>2010-01-01T01:57:15Z</time>
      </trkpt>
      <trkpt lat="50.444100005552173" lon="6.407500030472875">
        <ele>574</ele>
        <time>2010-01-01T01:57:28Z</time>
      </trkpt>
      <trkpt lat="50.44403001666069" lon="6.407400034368038">
        <ele>575</ele>
        <time>2010-01-01T01:57:32Z</time>
      </trkpt>
      <trkpt lat="50.443860031664371" lon="6.407240023836494">
        <ele>578</ele>
        <time>2010-01-01T01:57:39Z</time>
      </trkpt>
      <trkpt lat="50.443800017237663" lon="6.407119994983077">
        <ele>578</ele>
        <time>2010-01-01T01:57:43Z</time>
      </trkpt>
      <trkpt lat="50.443559540435672" lon="6.406040908768773" />
      <trkpt lat="50.444637537002563" lon="6.402905322611332" />
      <trkpt lat="50.444745328277349" lon="6.402675239369273" />
      <trkpt lat="50.44544605538249" lon="6.402416322380304" />
      <trkpt lat="50.446218531578779" lon="6.402790322899818" />
      <trkpt lat="50.446861758828163" lon="6.403191732242703" />
      <trkpt lat="50.447454694658518" lon="6.403508149087429" />
      <trkpt lat="50.448712315410376" lon="6.40383898280561" />
      <trkpt lat="50.448667388409376" lon="6.403637649491429" />
      <trkpt lat="50.448326077312231" lon="6.40136506408453" />
      <trkpt lat="50.448011672124267" lon="6.400516480207443" />
      <trkpt lat="50.447706235572696" lon="6.400919230654836" />
      <trkpt lat="50.447346903383732" lon="6.401019897311926" />
      <trkpt lat="50.446879779919982" lon="6.400559647008777" />
    </trkseg>
  </trk>

</gpx>